sensor_id;sensor_type;location;lat;lon;timestamp;P1;durP1;ratioP1;P2;durP2;ratioP2
51499;SDS011;39101;53.478;6.158;2022-09-09T00:06:59;14.57;;;10.35;;
51499;SDS011;39101;53.478;6.158;2022-09-09T00:09:45;13.02;;;9.77;;
51499;SDS011;39101;53.478;6.158;2022-09-09T00:12:20;12.18;;;10.43;;
51499;SDS011;39101;53.478;6.158;2022-09-09T00:15:34;14.93;;;10.35;;
51499;SDS011;39101;53.478;6.158;2022-09-09T00:20:44;13.02;;;10.55;;
51499;SDS011;39101;53.478;6.158;2022-09-09T00:23:32;15.95;;;11.07;;
51499;SDS011;39101;53.478;6.158;2022-09-09T00:28:55;14.60;;;10.80;;
51499;SDS011;39101;53.478;6.158;2022-09-09T00:31:28;12.95;;;11.32;;
51499;SDS011;39101;53.478;6.158;2022-09-09T00:34:00;15.35;;;12.32;;
51499;SDS011;39101;53.478;6.158;2022-09-09T00:36:36;15.93;;;10.55;;
51499;SDS011;39101;53.478;6.158;2022-09-09T00:39:03;12.98;;;9.25;;
51499;SDS011;39101;53.478;6.158;2022-09-09T00:44:19;11.73;;;8.48;;
51499;SDS011;39101;53.478;6.158;2022-09-09T00:46:59;12.23;;;9.10;;
51499;SDS011;39101;53.478;6.158;2022-09-09T01:11:20;9.52;;;7.63;;
51499;SDS011;39101;53.478;6.158;2022-09-09T01:13:52;10.52;;;8.38;;
51499;SDS011;39101;53.478;6.158;2022-09-09T01:16:24;14.25;;;8.93;;
51499;SDS011;39101;53.478;6.158;2022-09-09T01:18:51;14.77;;;9.18;;
51499;SDS011;39101;53.478;6.158;2022-09-09T01:21:29;10.13;;;8.32;;
51499;SDS011;39101;53.478;6.158;2022-09-09T01:24:11;10.68;;;7.45;;
51499;SDS011;39101;53.478;6.158;2022-09-09T01:27:01;13.25;;;8.48;;
51499;SDS011;39101;53.478;6.158;2022-09-09T01:29:30;15.68;;;8.75;;
51499;SDS011;39101;53.478;6.158;2022-09-09T01:34:25;12.77;;;9.52;;
51499;SDS011;39101;53.478;6.158;2022-09-09T01:39:23;10.73;;;8.95;;
51499;SDS011;39101;53.478;6.158;2022-09-09T01:41:48;15.85;;;10.13;;
51499;SDS011;39101;53.478;6.158;2022-09-09T01:44:15;12.88;;;9.55;;
51499;SDS011;39101;53.478;6.158;2022-09-09T01:46:40;10.57;;;9.27;;
51499;SDS011;39101;53.478;6.158;2022-09-09T01:49:06;11.18;;;9.30;;
51499;SDS011;39101;53.478;6.158;2022-09-09T01:51:33;12.63;;;10.43;;
51499;SDS011;39101;53.478;6.158;2022-09-09T01:54:01;11.50;;;9.93;;
51499;SDS011;39101;53.478;6.158;2022-09-09T02:02:24;14.25;;;9.82;;
51499;SDS011;39101;53.478;6.158;2022-09-09T02:05:21;12.52;;;9.90;;
51499;SDS011;39101;53.478;6.158;2022-09-09T02:10:44;12.38;;;10.25;;
51499;SDS011;39101;53.478;6.158;2022-09-09T02:13:14;11.93;;;9.68;;
51499;SDS011;39101;53.478;6.158;2022-09-09T02:15:56;14.00;;;10.03;;
51499;SDS011;39101;53.478;6.158;2022-09-09T02:18:34;12.15;;;10.85;;
51499;SDS011;39101;53.478;6.158;2022-09-09T02:21:13;12.52;;;10.18;;
51499;SDS011;39101;53.478;6.158;2022-09-09T02:23:40;17.40;;;10.05;;
51499;SDS011;39101;53.478;6.158;2022-09-09T02:26:09;14.43;;;10.77;;
51499;SDS011;39101;53.478;6.158;2022-09-09T02:31:04;13.77;;;11.10;;
51499;SDS011;39101;53.478;6.158;2022-09-09T02:33:33;13.23;;;11.65;;
51499;SDS011;39101;53.478;6.158;2022-09-09T02:36:05;12.45;;;10.82;;
51499;SDS011;39101;53.478;6.158;2022-09-09T02:38:35;12.88;;;10.93;;
51499;SDS011;39101;53.478;6.158;2022-09-09T02:41:05;17.35;;;11.65;;
51499;SDS011;39101;53.478;6.158;2022-09-09T02:43:32;14.50;;;11.48;;
51499;SDS011;39101;53.478;6.158;2022-09-09T02:56:36;12.45;;;10.27;;
51499;SDS011;39101;53.478;6.158;2022-09-09T02:59:06;17.65;;;11.77;;
51499;SDS011;39101;53.478;6.158;2022-09-09T03:01:32;12.77;;;10.93;;
51499;SDS011;39101;53.478;6.158;2022-09-09T03:03:58;15.55;;;11.23;;
51499;SDS011;39101;53.478;6.158;2022-09-09T03:06:24;14.15;;;11.60;;
51499;SDS011;39101;53.478;6.158;2022-09-09T03:08:50;12.88;;;10.95;;
51499;SDS011;39101;53.478;6.158;2022-09-09T03:11:17;13.02;;;10.90;;
51499;SDS011;39101;53.478;6.158;2022-09-09T03:13:43;15.55;;;10.50;;
51499;SDS011;39101;53.478;6.158;2022-09-09T03:16:08;14.90;;;11.52;;
51499;SDS011;39101;53.478;6.158;2022-09-09T03:18:34;23.02;;;11.65;;
51499;SDS011;39101;53.478;6.158;2022-09-09T03:21:00;14.52;;;11.32;;
51499;SDS011;39101;53.478;6.158;2022-09-09T03:23:26;14.02;;;10.65;;
51499;SDS011;39101;53.478;6.158;2022-09-09T03:25:52;15.95;;;11.68;;
51499;SDS011;39101;53.478;6.158;2022-09-09T03:28:21;14.77;;;11.27;;
51499;SDS011;39101;53.478;6.158;2022-09-09T03:30:48;19.02;;;10.90;;
51499;SDS011;39101;53.478;6.158;2022-09-09T03:33:14;15.65;;;11.75;;
51499;SDS011;39101;53.478;6.158;2022-09-09T03:35:45;18.00;;;11.57;;
51499;SDS011;39101;53.478;6.158;2022-09-09T03:38:13;13.45;;;12.05;;
51499;SDS011;39101;53.478;6.158;2022-09-09T03:40:39;15.88;;;11.75;;
51499;SDS011;39101;53.478;6.158;2022-09-09T03:43:04;14.07;;;10.77;;
51499;SDS011;39101;53.478;6.158;2022-09-09T03:45:30;15.57;;;10.55;;
51499;SDS011;39101;53.478;6.158;2022-09-09T03:47:56;12.07;;;9.80;;
51499;SDS011;39101;53.478;6.158;2022-09-09T03:50:22;15.32;;;10.20;;
51499;SDS011;39101;53.478;6.158;2022-09-09T03:52:48;14.45;;;11.77;;
51499;SDS011;39101;53.478;6.158;2022-09-09T03:55:14;13.68;;;9.15;;
51499;SDS011;39101;53.478;6.158;2022-09-09T03:57:40;16.73;;;10.63;;
51499;SDS011;39101;53.478;6.158;2022-09-09T04:00:06;13.75;;;10.10;;
51499;SDS011;39101;53.478;6.158;2022-09-09T04:02:32;10.63;;;9.43;;
51499;SDS011;39101;53.478;6.158;2022-09-09T04:04:58;11.88;;;9.95;;
51499;SDS011;39101;53.478;6.158;2022-09-09T04:07:24;12.05;;;9.10;;
51499;SDS011;39101;53.478;6.158;2022-09-09T04:09:52;12.25;;;9.77;;
51499;SDS011;39101;53.478;6.158;2022-09-09T04:12:19;11.15;;;9.57;;
51499;SDS011;39101;53.478;6.158;2022-09-09T04:14:46;10.02;;;8.60;;
51499;SDS011;39101;53.478;6.158;2022-09-09T04:17:11;15.95;;;9.30;;
51499;SDS011;39101;53.478;6.158;2022-09-09T04:19:37;9.88;;;8.70;;
51499;SDS011;39101;53.478;6.158;2022-09-09T04:22:03;12.15;;;8.82;;
51499;SDS011;39101;53.478;6.158;2022-09-09T04:24:29;13.85;;;9.18;;
51499;SDS011;39101;53.478;6.158;2022-09-09T04:26:54;12.13;;;9.43;;
51499;SDS011;39101;53.478;6.158;2022-09-09T04:29:20;11.35;;;9.75;;
51499;SDS011;39101;53.478;6.158;2022-09-09T04:31:46;15.23;;;9.00;;
51499;SDS011;39101;53.478;6.158;2022-09-09T04:34:11;12.88;;;9.52;;
51499;SDS011;39101;53.478;6.158;2022-09-09T04:36:37;11.75;;;8.98;;
51499;SDS011;39101;53.478;6.158;2022-09-09T04:39:05;11.75;;;8.82;;
51499;SDS011;39101;53.478;6.158;2022-09-09T04:41:30;14.55;;;10.50;;
51499;SDS011;39101;53.478;6.158;2022-09-09T04:43:56;12.05;;;9.15;;
51499;SDS011;39101;53.478;6.158;2022-09-09T04:46:22;14.77;;;9.50;;
51499;SDS011;39101;53.478;6.158;2022-09-09T04:48:48;15.63;;;9.40;;
51499;SDS011;39101;53.478;6.158;2022-09-09T04:51:15;12.10;;;8.75;;
51499;SDS011;39101;53.478;6.158;2022-09-09T04:53:40;10.32;;;9.07;;
51499;SDS011;39101;53.478;6.158;2022-09-09T04:56:10;12.25;;;8.90;;
51499;SDS011;39101;53.478;6.158;2022-09-09T04:58:38;13.32;;;10.05;;
51499;SDS011;39101;53.478;6.158;2022-09-09T05:01:10;10.13;;;9.00;;
51499;SDS011;39101;53.478;6.158;2022-09-09T05:03:39;10.57;;;9.20;;
51499;SDS011;39101;53.478;6.158;2022-09-09T05:06:09;10.95;;;9.43;;
51499;SDS011;39101;53.478;6.158;2022-09-09T05:08:36;10.00;;;8.68;;
51499;SDS011;39101;53.478;6.158;2022-09-09T05:11:03;13.43;;;9.88;;
51499;SDS011;39101;53.478;6.158;2022-09-09T05:13:38;12.02;;;8.30;;
51499;SDS011;39101;53.478;6.158;2022-09-09T05:16:05;11.88;;;9.63;;
51499;SDS011;39101;53.478;6.158;2022-09-09T05:18:30;12.15;;;8.30;;
51499;SDS011;39101;53.478;6.158;2022-09-09T05:20:59;11.45;;;9.30;;
51499;SDS011;39101;53.478;6.158;2022-09-09T05:23:25;14.95;;;10.07;;
51499;SDS011;39101;53.478;6.158;2022-09-09T05:25:55;11.95;;;10.23;;
51499;SDS011;39101;53.478;6.158;2022-09-09T05:28:22;14.57;;;10.25;;
51499;SDS011;39101;53.478;6.158;2022-09-09T05:30:59;12.82;;;9.45;;
51499;SDS011;39101;53.478;6.158;2022-09-09T05:33:28;13.60;;;10.05;;
51499;SDS011;39101;53.478;6.158;2022-09-09T05:35:55;11.63;;;10.35;;
51499;SDS011;39101;53.478;6.158;2022-09-09T05:38:22;12.05;;;10.50;;
51499;SDS011;39101;53.478;6.158;2022-09-09T05:40:50;15.07;;;11.10;;
51499;SDS011;39101;53.478;6.158;2022-09-09T05:43:17;13.38;;;10.50;;
51499;SDS011;39101;53.478;6.158;2022-09-09T05:45:45;15.18;;;10.43;;
51499;SDS011;39101;53.478;6.158;2022-09-09T05:48:12;11.95;;;10.68;;
51499;SDS011;39101;53.478;6.158;2022-09-09T05:50:40;13.18;;;9.73;;
51499;SDS011;39101;53.478;6.158;2022-09-09T05:53:07;14.70;;;10.60;;
51499;SDS011;39101;53.478;6.158;2022-09-09T05:55:34;11.93;;;9.85;;
51499;SDS011;39101;53.478;6.158;2022-09-09T05:57:59;14.88;;;10.82;;
51499;SDS011;39101;53.478;6.158;2022-09-09T06:00:26;14.13;;;10.18;;
51499;SDS011;39101;53.478;6.158;2022-09-09T06:02:52;20.45;;;10.85;;
51499;SDS011;39101;53.478;6.158;2022-09-09T06:05:18;15.15;;;11.70;;
51499;SDS011;39101;53.478;6.158;2022-09-09T06:07:44;16.67;;;11.50;;
51499;SDS011;39101;53.478;6.158;2022-09-09T06:10:13;18.98;;;12.15;;
51499;SDS011;39101;53.478;6.158;2022-09-09T06:12:39;13.68;;;11.95;;
51499;SDS011;39101;53.478;6.158;2022-09-09T06:15:05;13.68;;;10.68;;
51499;SDS011;39101;53.478;6.158;2022-09-09T06:17:31;15.90;;;11.52;;
51499;SDS011;39101;53.478;6.158;2022-09-09T06:19:56;13.65;;;11.10;;
51499;SDS011;39101;53.478;6.158;2022-09-09T06:22:22;13.27;;;10.40;;
51499;SDS011;39101;53.478;6.158;2022-09-09T06:24:48;16.80;;;11.35;;
51499;SDS011;39101;53.478;6.158;2022-09-09T06:27:13;13.82;;;10.93;;
51499;SDS011;39101;53.478;6.158;2022-09-09T06:29:39;16.90;;;12.13;;
51499;SDS011;39101;53.478;6.158;2022-09-09T06:32:05;14.90;;;11.88;;
51499;SDS011;39101;53.478;6.158;2022-09-09T06:34:34;14.90;;;11.85;;
51499;SDS011;39101;53.478;6.158;2022-09-09T06:37:00;12.90;;;11.55;;
51499;SDS011;39101;53.478;6.158;2022-09-09T06:39:26;15.73;;;12.40;;
51499;SDS011;39101;53.478;6.158;2022-09-09T06:41:51;17.98;;;13.70;;
51499;SDS011;39101;53.478;6.158;2022-09-09T06:44:18;14.52;;;12.95;;
51499;SDS011;39101;53.478;6.158;2022-09-09T06:46:44;18.05;;;13.63;;
51499;SDS011;39101;53.478;6.158;2022-09-09T06:49:13;16.75;;;13.20;;
51499;SDS011;39101;53.478;6.158;2022-09-09T06:51:39;16.98;;;13.35;;
51499;SDS011;39101;53.478;6.158;2022-09-09T06:54:09;14.40;;;12.50;;
51499;SDS011;39101;53.478;6.158;2022-09-09T06:56:40;13.85;;;11.52;;
51499;SDS011;39101;53.478;6.158;2022-09-09T06:59:08;15.48;;;12.75;;
51499;SDS011;39101;53.478;6.158;2022-09-09T07:01:35;13.80;;;11.60;;
51499;SDS011;39101;53.478;6.158;2022-09-09T07:04:03;13.55;;;10.82;;
51499;SDS011;39101;53.478;6.158;2022-09-09T07:06:33;14.48;;;10.57;;
51499;SDS011;39101;53.478;6.158;2022-09-09T07:09:01;15.20;;;11.00;;
51499;SDS011;39101;53.478;6.158;2022-09-09T07:11:37;11.50;;;8.90;;
51499;SDS011;39101;53.478;6.158;2022-09-09T07:14:06;14.07;;;9.50;;
51499;SDS011;39101;53.478;6.158;2022-09-09T07:16:32;11.23;;;8.80;;
51499;SDS011;39101;53.478;6.158;2022-09-09T07:18:58;10.82;;;9.60;;
51499;SDS011;39101;53.478;6.158;2022-09-09T07:21:25;13.18;;;11.20;;
51499;SDS011;39101;53.478;6.158;2022-09-09T07:23:53;12.60;;;10.23;;
51499;SDS011;39101;53.478;6.158;2022-09-09T07:26:20;15.40;;;11.93;;
51499;SDS011;39101;53.478;6.158;2022-09-09T07:28:47;12.10;;;10.75;;
51499;SDS011;39101;53.478;6.158;2022-09-09T07:31:14;14.98;;;10.57;;
51499;SDS011;39101;53.478;6.158;2022-09-09T07:33:42;15.70;;;11.95;;
51499;SDS011;39101;53.478;6.158;2022-09-09T07:36:15;12.50;;;11.15;;
51499;SDS011;39101;53.478;6.158;2022-09-09T07:38:46;12.52;;;10.88;;
51499;SDS011;39101;53.478;6.158;2022-09-09T07:43:50;13.23;;;10.93;;
51499;SDS011;39101;53.478;6.158;2022-09-09T07:46:18;12.65;;;10.55;;
51499;SDS011;39101;53.478;6.158;2022-09-09T07:48:46;14.00;;;9.77;;
51499;SDS011;39101;53.478;6.158;2022-09-09T07:51:17;11.60;;;9.40;;
51499;SDS011;39101;53.478;6.158;2022-09-09T07:53:45;13.25;;;9.70;;
51499;SDS011;39101;53.478;6.158;2022-09-09T07:56:16;11.48;;;9.50;;
51499;SDS011;39101;53.478;6.158;2022-09-09T07:58:44;13.75;;;9.57;;
51499;SDS011;39101;53.478;6.158;2022-09-09T08:01:15;12.70;;;9.02;;
51499;SDS011;39101;53.478;6.158;2022-09-09T08:03:43;11.68;;;9.40;;
51499;SDS011;39101;53.478;6.158;2022-09-09T08:06:10;15.00;;;10.02;;
51499;SDS011;39101;53.478;6.158;2022-09-09T08:08:37;10.13;;;8.88;;
51499;SDS011;39101;53.478;6.158;2022-09-09T08:11:11;14.20;;;10.07;;
51499;SDS011;39101;53.478;6.158;2022-09-09T08:13:39;13.13;;;9.07;;
51499;SDS011;39101;53.478;6.158;2022-09-09T08:16:08;10.68;;;8.88;;
51499;SDS011;39101;53.478;6.158;2022-09-09T08:18:39;13.18;;;8.48;;
51499;SDS011;39101;53.478;6.158;2022-09-09T08:21:06;12.00;;;8.23;;
51499;SDS011;39101;53.478;6.158;2022-09-09T08:23:33;11.20;;;7.47;;
51499;SDS011;39101;53.478;6.158;2022-09-09T08:26:07;12.75;;;8.40;;
51499;SDS011;39101;53.478;6.158;2022-09-09T08:28:40;9.23;;;7.43;;
51499;SDS011;39101;53.478;6.158;2022-09-09T08:31:08;12.52;;;7.43;;
51499;SDS011;39101;53.478;6.158;2022-09-09T08:33:38;10.05;;;7.63;;
51499;SDS011;39101;53.478;6.158;2022-09-09T08:36:06;12.23;;;8.15;;
51499;SDS011;39101;53.478;6.158;2022-09-09T08:38:34;10.70;;;6.95;;
51499;SDS011;39101;53.478;6.158;2022-09-09T08:41:04;9.80;;;6.70;;
51499;SDS011;39101;53.478;6.158;2022-09-09T08:43:41;9.50;;;6.95;;
51499;SDS011;39101;53.478;6.158;2022-09-09T08:46:20;12.07;;;7.00;;
51499;SDS011;39101;53.478;6.158;2022-09-09T08:49:13;10.25;;;6.65;;
51499;SDS011;39101;53.478;6.158;2022-09-09T08:51:53;8.70;;;5.88;;
51499;SDS011;39101;53.478;6.158;2022-09-09T08:54:21;10.70;;;7.65;;
51499;SDS011;39101;53.478;6.158;2022-09-09T08:56:48;9.70;;;7.43;;
51499;SDS011;39101;53.478;6.158;2022-09-09T08:59:14;10.05;;;7.05;;
51499;SDS011;39101;53.478;6.158;2022-09-09T09:04:30;11.73;;;5.95;;
51499;SDS011;39101;53.478;6.158;2022-09-09T09:12:10;8.45;;;6.72;;
51499;SDS011;39101;53.478;6.158;2022-09-09T09:14:42;12.15;;;6.25;;
51499;SDS011;39101;53.478;6.158;2022-09-09T09:17:12;10.57;;;5.95;;
51499;SDS011;39101;53.478;6.158;2022-09-09T09:19:40;8.70;;;6.30;;
51499;SDS011;39101;53.478;6.158;2022-09-09T09:30:26;11.50;;;5.95;;
51499;SDS011;39101;53.478;6.158;2022-09-09T09:33:05;10.55;;;6.88;;
51499;SDS011;39101;53.478;6.158;2022-09-09T09:35:40;11.80;;;6.20;;
51499;SDS011;39101;53.478;6.158;2022-09-09T09:38:19;10.15;;;6.10;;
51499;SDS011;39101;53.478;6.158;2022-09-09T09:40:54;10.25;;;6.30;;
51499;SDS011;39101;53.478;6.158;2022-09-09T09:43:35;9.18;;;6.00;;
51499;SDS011;39101;53.478;6.158;2022-09-09T09:46:04;9.40;;;5.60;;
51499;SDS011;39101;53.478;6.158;2022-09-09T09:48:42;10.27;;;5.25;;
51499;SDS011;39101;53.478;6.158;2022-09-09T09:51:09;9.60;;;5.82;;
51499;SDS011;39101;53.478;6.158;2022-09-09T09:56:04;11.95;;;5.50;;
51499;SDS011;39101;53.478;6.158;2022-09-09T09:58:33;9.55;;;5.43;;
51499;SDS011;39101;53.478;6.158;2022-09-09T10:01:27;10.02;;;5.68;;
51499;SDS011;39101;53.478;6.158;2022-09-09T10:06:46;9.95;;;5.80;;
51499;SDS011;39101;53.478;6.158;2022-09-09T10:09:25;8.93;;;5.82;;
51499;SDS011;39101;53.478;6.158;2022-09-09T10:12:14;11.70;;;5.60;;
51499;SDS011;39101;53.478;6.158;2022-09-09T10:17:27;11.02;;;5.38;;
51499;SDS011;39101;53.478;6.158;2022-09-09T10:22:43;10.20;;;5.70;;
51499;SDS011;39101;53.478;6.158;2022-09-09T10:25:30;8.98;;;4.28;;
51499;SDS011;39101;53.478;6.158;2022-09-09T10:36:20;10.82;;;3.92;;
51499;SDS011;39101;53.478;6.158;2022-09-09T10:39:04;10.50;;;3.42;;
51499;SDS011;39101;53.478;6.158;2022-09-09T10:41:56;12.77;;;4.35;;
51499;SDS011;39101;53.478;6.158;2022-09-09T10:50:00;9.73;;;3.40;;
51499;SDS011;39101;53.478;6.158;2022-09-09T10:53:14;9.25;;;3.22;;
51499;SDS011;39101;53.478;6.158;2022-09-09T10:55:18;9.63;;;3.53;;
51499;SDS011;39101;53.478;6.158;2022-09-09T10:57:55;7.72;;;3.10;;
51499;SDS011;39101;53.478;6.158;2022-09-09T11:00:29;7.75;;;3.00;;
51499;SDS011;39101;53.478;6.158;2022-09-09T11:03:12;8.00;;;3.08;;
51499;SDS011;39101;53.478;6.158;2022-09-09T11:05:57;7.22;;;2.97;;
51499;SDS011;39101;53.478;6.158;2022-09-09T11:08:30;8.63;;;3.38;;
51499;SDS011;39101;53.478;6.158;2022-09-09T11:13:30;9.10;;;3.28;;
51499;SDS011;39101;53.478;6.158;2022-09-09T11:19:45;8.93;;;2.95;;
51499;SDS011;39101;53.478;6.158;2022-09-09T11:21:51;8.80;;;3.10;;
51499;SDS011;39101;53.478;6.158;2022-09-09T11:27:06;8.52;;;2.50;;
51499;SDS011;39101;53.478;6.158;2022-09-09T11:30:11;7.03;;;2.72;;
51499;SDS011;39101;53.478;6.158;2022-09-09T11:35:42;8.18;;;1.67;;
51499;SDS011;39101;53.478;6.158;2022-09-09T11:40:40;5.13;;;1.55;;
51499;SDS011;39101;53.478;6.158;2022-09-09T11:45:53;5.43;;;2.72;;
51499;SDS011;39101;53.478;6.158;2022-09-09T11:51:11;6.57;;;2.00;;
51499;SDS011;39101;53.478;6.158;2022-09-09T11:56:22;8.63;;;2.83;;
51499;SDS011;39101;53.478;6.158;2022-09-09T11:59:03;4.97;;;2.10;;
51499;SDS011;39101;53.478;6.158;2022-09-09T12:01:41;4.25;;;1.90;;
51499;SDS011;39101;53.478;6.158;2022-09-09T12:09:27;9.48;;;2.30;;
51499;SDS011;39101;53.478;6.158;2022-09-09T12:12:07;6.03;;;2.65;;
51499;SDS011;39101;53.478;6.158;2022-09-09T12:19:39;7.78;;;2.40;;
51499;SDS011;39101;53.478;6.158;2022-09-09T12:24:51;7.70;;;2.65;;
51499;SDS011;39101;53.478;6.158;2022-09-09T12:27:34;8.95;;;2.30;;
51499;SDS011;39101;53.478;6.158;2022-09-09T12:30:10;12.68;;;3.78;;
51499;SDS011;39101;53.478;6.158;2022-09-09T12:32:40;16.00;;;3.55;;
51499;SDS011;39101;53.478;6.158;2022-09-09T12:35:10;20.45;;;4.00;;
51499;SDS011;39101;53.478;6.158;2022-09-09T12:37:50;7.72;;;2.47;;
51499;SDS011;39101;53.478;6.158;2022-09-09T12:40:40;7.55;;;2.38;;
51499;SDS011;39101;53.478;6.158;2022-09-09T12:43:19;6.28;;;2.60;;
51499;SDS011;39101;53.478;6.158;2022-09-09T12:45:48;10.02;;;2.92;;
51499;SDS011;39101;53.478;6.158;2022-09-09T12:48:21;7.95;;;3.13;;
51499;SDS011;39101;53.478;6.158;2022-09-09T12:50:55;5.35;;;2.00;;
51499;SDS011;39101;53.478;6.158;2022-09-09T12:53:25;6.10;;;2.10;;
51499;SDS011;39101;53.478;6.158;2022-09-09T12:56:00;6.97;;;2.22;;
51499;SDS011;39101;53.478;6.158;2022-09-09T12:58:28;5.43;;;1.88;;
51499;SDS011;39101;53.478;6.158;2022-09-09T13:00:58;13.77;;;2.50;;
51499;SDS011;39101;53.478;6.158;2022-09-09T13:03:24;8.55;;;2.85;;
51499;SDS011;39101;53.478;6.158;2022-09-09T13:05:51;5.82;;;1.92;;
51499;SDS011;39101;53.478;6.158;2022-09-09T13:08:18;7.38;;;1.95;;
51499;SDS011;39101;53.478;6.158;2022-09-09T13:10:51;4.70;;;2.10;;
51499;SDS011;39101;53.478;6.158;2022-09-09T13:13:23;6.68;;;1.83;;
51499;SDS011;39101;53.478;6.158;2022-09-09T13:15:56;6.22;;;2.15;;
51499;SDS011;39101;53.478;6.158;2022-09-09T13:18:24;7.03;;;2.10;;
51499;SDS011;39101;53.478;6.158;2022-09-09T13:20:55;9.60;;;3.08;;
51499;SDS011;39101;53.478;6.158;2022-09-09T13:23:23;7.45;;;2.20;;
51499;SDS011;39101;53.478;6.158;2022-09-09T13:26:04;5.65;;;2.03;;
51499;SDS011;39101;53.478;6.158;2022-09-09T13:28:43;5.80;;;2.05;;
51499;SDS011;39101;53.478;6.158;2022-09-09T13:31:24;5.47;;;1.90;;
51499;SDS011;39101;53.478;6.158;2022-09-09T13:33:55;7.07;;;2.33;;
51499;SDS011;39101;53.478;6.158;2022-09-09T13:36:31;6.80;;;2.35;;
51499;SDS011;39101;53.478;6.158;2022-09-09T13:39:00;7.70;;;2.20;;
51499;SDS011;39101;53.478;6.158;2022-09-09T13:41:32;6.35;;;2.30;;
51499;SDS011;39101;53.478;6.158;2022-09-09T13:44:00;5.55;;;1.85;;
51499;SDS011;39101;53.478;6.158;2022-09-09T13:54:00;8.02;;;1.85;;
51499;SDS011;39101;53.478;6.158;2022-09-09T13:56:26;6.53;;;1.80;;
51499;SDS011;39101;53.478;6.158;2022-09-09T13:58:52;5.60;;;1.60;;
51499;SDS011;39101;53.478;6.158;2022-09-09T14:01:17;5.32;;;1.70;;
51499;SDS011;39101;53.478;6.158;2022-09-09T14:03:43;7.68;;;2.40;;
51499;SDS011;39101;53.478;6.158;2022-09-09T14:06:09;6.45;;;2.20;;
51499;SDS011;39101;53.478;6.158;2022-09-09T14:08:36;5.15;;;1.90;;
51499;SDS011;39101;53.478;6.158;2022-09-09T14:11:05;6.03;;;1.90;;
51499;SDS011;39101;53.478;6.158;2022-09-09T14:13:32;6.88;;;2.40;;
51499;SDS011;39101;53.478;6.158;2022-09-09T14:15:58;6.57;;;1.60;;
51499;SDS011;39101;53.478;6.158;2022-09-09T14:18:23;7.45;;;2.08;;
51499;SDS011;39101;53.478;6.158;2022-09-09T14:20:50;7.38;;;2.20;;
51499;SDS011;39101;53.478;6.158;2022-09-09T14:23:16;6.43;;;2.03;;
51499;SDS011;39101;53.478;6.158;2022-09-09T14:25:43;6.28;;;1.88;;
51499;SDS011;39101;53.478;6.158;2022-09-09T14:28:12;11.00;;;2.88;;
51499;SDS011;39101;53.478;6.158;2022-09-09T14:33:05;32.55;;;6.88;;
51499;SDS011;39101;53.478;6.158;2022-09-09T14:35:31;34.63;;;6.32;;
51499;SDS011;39101;53.478;6.158;2022-09-09T14:37:58;16.50;;;3.75;;
51499;SDS011;39101;53.478;6.158;2022-09-09T14:40:26;27.95;;;5.55;;
51499;SDS011;39101;53.478;6.158;2022-09-09T14:42:52;9.52;;;2.80;;
51499;SDS011;39101;53.478;6.158;2022-09-09T14:45:18;9.63;;;2.15;;
51499;SDS011;39101;53.478;6.158;2022-09-09T14:47:46;5.10;;;1.55;;
51499;SDS011;39101;53.478;6.158;2022-09-09T14:50:12;8.88;;;1.70;;
51499;SDS011;39101;53.478;6.158;2022-09-09T14:52:38;6.43;;;2.20;;
51499;SDS011;39101;53.478;6.158;2022-09-09T14:55:04;3.70;;;1.73;;
51499;SDS011;39101;53.478;6.158;2022-09-09T14:57:31;10.70;;;2.55;;
51499;SDS011;39101;53.478;6.158;2022-09-09T14:59:56;15.27;;;5.00;;
51499;SDS011;39101;53.478;6.158;2022-09-09T15:02:22;9.40;;;3.03;;
51499;SDS011;39101;53.478;6.158;2022-09-09T15:04:48;5.55;;;1.70;;
51499;SDS011;39101;53.478;6.158;2022-09-09T15:07:15;4.13;;;1.38;;
51499;SDS011;39101;53.478;6.158;2022-09-09T15:09:41;6.22;;;2.13;;
51499;SDS011;39101;53.478;6.158;2022-09-09T15:12:07;7.32;;;1.92;;
51499;SDS011;39101;53.478;6.158;2022-09-09T15:14:33;9.93;;;1.92;;
51499;SDS011;39101;53.478;6.158;2022-09-09T15:17:00;5.30;;;2.10;;
51499;SDS011;39101;53.478;6.158;2022-09-09T15:19:26;6.85;;;2.10;;
51499;SDS011;39101;53.478;6.158;2022-09-09T15:21:51;6.60;;;2.75;;
51499;SDS011;39101;53.478;6.158;2022-09-09T15:24:17;7.80;;;3.03;;
51499;SDS011;39101;53.478;6.158;2022-09-09T15:26:43;5.22;;;2.00;;
51499;SDS011;39101;53.478;6.158;2022-09-09T15:29:08;6.43;;;2.58;;
51499;SDS011;39101;53.478;6.158;2022-09-09T15:31:34;7.15;;;2.15;;
51499;SDS011;39101;53.478;6.158;2022-09-09T15:34:01;6.05;;;1.92;;
51499;SDS011;39101;53.478;6.158;2022-09-09T15:36:30;6.65;;;1.90;;
51499;SDS011;39101;53.478;6.158;2022-09-09T15:38:58;4.95;;;2.22;;
51499;SDS011;39101;53.478;6.158;2022-09-09T15:41:24;5.53;;;2.55;;
51499;SDS011;39101;53.478;6.158;2022-09-09T15:43:53;8.55;;;2.42;;
51499;SDS011;39101;53.478;6.158;2022-09-09T15:48:52;7.45;;;2.30;;
51499;SDS011;39101;53.478;6.158;2022-09-09T15:51:19;5.43;;;2.13;;
51499;SDS011;39101;53.478;6.158;2022-09-09T15:53:45;3.72;;;1.95;;
51499;SDS011;39101;53.478;6.158;2022-09-09T15:56:11;4.90;;;1.80;;
51499;SDS011;39101;53.478;6.158;2022-09-09T15:58:36;4.78;;;2.10;;
51499;SDS011;39101;53.478;6.158;2022-09-09T16:01:03;5.28;;;2.45;;
51499;SDS011;39101;53.478;6.158;2022-09-09T16:03:33;4.53;;;1.92;;
51499;SDS011;39101;53.478;6.158;2022-09-09T16:05:59;5.40;;;1.60;;
51499;SDS011;39101;53.478;6.158;2022-09-09T16:08:31;6.50;;;1.45;;
51499;SDS011;39101;53.478;6.158;2022-09-09T16:11:07;2.88;;;1.10;;
51499;SDS011;39101;53.478;6.158;2022-09-09T16:13:38;4.47;;;1.55;;
51499;SDS011;39101;53.478;6.158;2022-09-09T16:16:05;3.03;;;1.42;;
51499;SDS011;39101;53.478;6.158;2022-09-09T16:18:40;4.03;;;1.90;;
51499;SDS011;39101;53.478;6.158;2022-09-09T16:21:08;7.88;;;2.40;;
51499;SDS011;39101;53.478;6.158;2022-09-09T16:23:39;4.90;;;2.13;;
51499;SDS011;39101;53.478;6.158;2022-09-09T16:26:05;5.28;;;2.03;;
51499;SDS011;39101;53.478;6.158;2022-09-09T16:28:30;3.97;;;1.80;;
51499;SDS011;39101;53.478;6.158;2022-09-09T16:30:56;4.45;;;1.63;;
51499;SDS011;39101;53.478;6.158;2022-09-09T16:33:23;4.20;;;1.77;;
51499;SDS011;39101;53.478;6.158;2022-09-09T16:35:50;8.93;;;2.03;;
51499;SDS011;39101;53.478;6.158;2022-09-09T16:38:16;12.15;;;2.85;;
51499;SDS011;39101;53.478;6.158;2022-09-09T16:40:42;5.75;;;2.50;;
51499;SDS011;39101;53.478;6.158;2022-09-09T16:43:07;5.43;;;2.80;;
51499;SDS011;39101;53.478;6.158;2022-09-09T16:45:41;8.23;;;3.20;;
51499;SDS011;39101;53.478;6.158;2022-09-09T16:48:07;7.60;;;2.22;;
51499;SDS011;39101;53.478;6.158;2022-09-09T16:50:32;4.88;;;2.03;;
51499;SDS011;39101;53.478;6.158;2022-09-09T16:52:58;5.80;;;2.85;;
51499;SDS011;39101;53.478;6.158;2022-09-09T16:55:24;4.40;;;1.90;;
51499;SDS011;39101;53.478;6.158;2022-09-09T16:57:51;3.80;;;1.92;;
51499;SDS011;39101;53.478;6.158;2022-09-09T17:00:16;5.18;;;2.25;;
51499;SDS011;39101;53.478;6.158;2022-09-09T17:02:43;3.67;;;2.22;;
51499;SDS011;39101;53.478;6.158;2022-09-09T17:05:10;3.35;;;2.25;;
51499;SDS011;39101;53.478;6.158;2022-09-09T17:07:37;5.70;;;2.13;;
51499;SDS011;39101;53.478;6.158;2022-09-09T17:10:05;4.45;;;2.05;;
51499;SDS011;39101;53.478;6.158;2022-09-09T17:12:31;6.55;;;2.35;;
51499;SDS011;39101;53.478;6.158;2022-09-09T17:14:57;4.53;;;2.10;;
51499;SDS011;39101;53.478;6.158;2022-09-09T17:17:25;3.92;;;2.47;;
51499;SDS011;39101;53.478;6.158;2022-09-09T17:19:51;4.88;;;2.30;;
51499;SDS011;39101;53.478;6.158;2022-09-09T17:22:17;3.65;;;2.10;;
51499;SDS011;39101;53.478;6.158;2022-09-09T17:24:45;5.30;;;2.70;;